Etusivu
METAR-TAF:

METAR-TAF

Lentoasemat :

Austin, Minnesota, Yhdysvallat

Leveyspiiri: 43-40N, Pituuspiiri: 092-56W, korkeus merenpinnasta: 375 m

Tämänhetkinen sää

Tämä raportti tehtiin 14 minuuttia sitten, kello 07.55 UTC
Tuuli 4 kn pohjoisen/luoteesta
Lämpötila 17°C
Kosteus 94%
Ilmanpaine 1016 hPa
Näkyvyys: 16.1 km
selkeää

METAR: KAUM 150755Z AUTO 34004KT 10SM CLR 17/16 A3001 RMK AO2

Aika: 03:09 (08:09 UTC)


TAF: puuttuu

Säähavainnot ja -ennusteet yli 4000 lentoasemalta (METAR- ja TAF-raportit).

Käytössä olevat sääasemat on merkitty karttaan keltaisilla ja punaisilla pisteillä.

Aseta hiiri pisteen päälle nähdäksesi sääaseman nimen.

Klikkaa sitten nähdäksesi säähavainnot ja -ennusteet.

Kartan vaihtaminen: klikkaa mustalla rastilla varustettuja vihreitä pisteitä, niin voit zoomata sisään; viivalla varustettua vihreää pistettä, niin voit zoomata ulos tai vihreitä nuolia, niin pääset viereisille kartoille.


METAR-TAF: